createdAt,value
2023-03-12T00:00:54.069Z,98650.38
2023-03-12T00:03:21.734Z,98658.06
2023-03-12T00:05:49.677Z,98660.13
2023-03-12T00:08:17.321Z,98663.47
2023-03-12T00:10:44.867Z,98669.91
2023-03-12T00:13:14.011Z,98673.66
2023-03-12T00:15:41.775Z,98667.63
2023-03-12T00:18:09.401Z,98676.75
2023-03-12T00:20:37.009Z,98680.09
2023-03-12T00:23:04.597Z,98681.75
2023-03-12T00:25:32.274Z,98679.25
2023-03-12T00:27:59.907Z,98685.28
2023-03-12T00:30:29.070Z,98690.91
2023-03-12T00:32:56.691Z,98700.84
2023-03-12T00:35:24.384Z,98701.06
2023-03-12T00:37:51.881Z,98702.09
2023-03-12T00:40:19.846Z,98713.56
2023-03-12T00:42:47.399Z,98719.16
2023-03-12T00:45:15.091Z,98728.09
2023-03-12T00:47:44.264Z,98735.75
2023-03-12T00:50:12.075Z,98733.50
2023-03-12T00:52:39.633Z,98740.13
2023-03-12T00:55:07.931Z,98751.56
2023-03-12T00:57:35.573Z,98745.53
2023-03-12T01:00:03.814Z,98747.00
2023-03-12T01:02:31.473Z,98758.00
2023-03-12T01:05:00.561Z,98766.31
2023-03-12T01:07:28.753Z,98776.94
2023-03-12T01:09:56.392Z,98775.03
2023-03-12T01:12:24.190Z,98773.78
2023-03-12T01:14:52.004Z,98769.22
2023-03-12T01:17:20.521Z,98770.88
2023-03-12T01:19:48.218Z,98779.19
2023-03-12T01:22:17.425Z,98786.84
2023-03-12T01:24:44.990Z,98784.59
2023-03-12T01:27:12.596Z,98790.00
2023-03-12T01:29:40.216Z,98795.56
2023-03-12T01:32:08.489Z,98793.91
2023-03-12T01:34:36.318Z,98800.94
2023-03-12T01:37:03.968Z,98793.09
2023-03-12T01:39:33.304Z,98803.91
2023-03-12T01:42:00.861Z,98798.28
2023-03-12T01:44:28.876Z,98803.69
2023-03-12T01:46:56.656Z,98809.94
2023-03-12T01:49:29.639Z,98819.44
2023-03-12T01:52:02.071Z,98822.81
2023-03-12T01:54:38.877Z,98824.44
2023-03-12T01:57:11.933Z,98825.88
2023-03-12T01:59:44.784Z,98835.44
2023-03-12T02:02:13.867Z,98840.44
2023-03-12T02:04:43.476Z,98844.63
2023-03-12T02:07:14.112Z,98841.06
2023-03-12T02:09:45.493Z,98842.94
2023-03-12T02:12:14.141Z,98843.13
2023-03-12T02:14:42.176Z,98842.75
2023-03-12T02:17:10.923Z,98839.41
2023-03-12T02:19:46.828Z,98843.13
2023-03-12T02:22:15.319Z,98854.78
2023-03-12T02:24:51.455Z,98855.41
2023-03-12T02:27:21.379Z,98854.56
2023-03-12T02:29:49.775Z,98863.25
2023-03-12T02:32:23.457Z,98860.75
2023-03-12T02:34:51.824Z,98867.44
2023-03-12T02:37:19.915Z,98867.25
2023-03-12T02:39:56.302Z,98875.47
2023-03-12T02:42:26.230Z,98883.66
2023-03-12T02:44:54.494Z,98880.31
2023-03-12T02:47:22.585Z,98887.56
2023-03-12T02:49:50.775Z,98891.13
2023-03-12T02:52:18.408Z,98889.47
2023-03-12T02:54:45.978Z,98898.56
2023-03-12T02:57:13.533Z,98911.06
2023-03-12T02:59:42.835Z,98901.09
2023-03-12T03:02:10.560Z,98903.34
2023-03-12T03:04:39.007Z,98898.56
2023-03-12T03:07:06.666Z,98905.81
2023-03-12T03:09:34.269Z,98900.63
2023-03-12T03:12:02.486Z,98905.19
2023-03-12T03:14:32.636Z,98903.13
2023-03-12T03:17:01.800Z,98908.06
2023-03-12T03:19:29.562Z,98910.06
2023-03-12T03:21:57.097Z,98908.66
2023-03-12T03:24:24.805Z,98918.88
2023-03-12T03:26:52.786Z,98915.16
2023-03-12T03:29:20.364Z,98926.25
2023-03-12T03:31:48.079Z,98928.28
2023-03-12T03:34:17.102Z,98924.72
2023-03-12T03:36:44.676Z,98927.63
2023-03-12T03:39:15.013Z,98935.53
2023-03-12T03:41:42.737Z,98933.50
2023-03-12T03:44:10.940Z,98938.72
2023-03-12T03:46:39.139Z,98938.72
2023-03-12T03:49:10.093Z,98940.59
2023-03-12T03:51:41.422Z,98940.59
2023-03-12T03:54:10.997Z,98941.41
2023-03-12T03:56:47.081Z,98942.81
2023-03-12T03:59:15.541Z,98946.19
2023-03-12T04:01:43.964Z,98947.19
2023-03-12T04:04:11.975Z,98945.16
2023-03-12T04:06:41.585Z,98947.84
2023-03-12T04:09:09.764Z,98952.59
2023-03-12T04:11:39.906Z,98957.81
2023-03-12T04:14:09.340Z,98959.50
2023-03-12T04:16:39.871Z,98962.41
2023-03-12T04:19:07.482Z,98959.69
2023-03-12T04:21:35.317Z,98971.78
2023-03-12T04:24:05.104Z,98964.91
2023-03-12T04:26:35.325Z,98960.16
2023-03-12T04:29:05.248Z,98965.56
2023-03-12T04:31:33.115Z,98965.75
2023-03-12T04:34:00.958Z,98970.97
2023-03-12T04:36:29.273Z,98964.06
2023-03-12T04:38:57.337Z,98972.19
2023-03-12T04:41:31.260Z,98983.84
2023-03-12T04:44:12.824Z,98986.31
2023-03-12T04:46:41.660Z,98990.41
2023-03-12T04:49:11.240Z,98989.88
2023-03-12T04:51:40.228Z,98994.44
2023-03-12T04:54:08.326Z,99000.84
2023-03-12T04:56:38.566Z,98999.19
2023-03-12T04:59:06.493Z,98999.81
2023-03-12T05:01:36.716Z,99008.78
2023-03-12T05:04:11.367Z,98996.50
2023-03-12T05:06:39.289Z,99008.16
2023-03-12T05:09:06.938Z,99003.75
2023-03-12T05:11:34.648Z,99010.00
2023-03-12T05:14:03.627Z,99004.59
2023-03-12T05:16:31.154Z,98996.09
2023-03-12T05:18:58.932Z,98999.19
2023-03-12T05:21:26.930Z,99005.44
2023-03-12T05:23:57.134Z,99009.31
2023-03-12T05:26:28.246Z,99000.03
2023-03-12T05:29:05.874Z,98997.13
2023-03-12T05:31:34.475Z,99003.56
2023-03-12T05:34:04.371Z,98998.16
2023-03-12T05:36:36.394Z,99011.28
2023-03-12T05:39:04.855Z,99007.75
2023-03-12T05:41:34.560Z,99018.38
2023-03-12T05:44:11.662Z,99019.78
2023-03-12T05:46:39.476Z,99015.00
2023-03-12T05:49:08.064Z,99022.28
2023-03-12T05:51:36.102Z,99027.69
2023-03-12T05:54:04.209Z,99032.88
2023-03-12T05:56:31.750Z,99028.50
2023-03-12T05:58:59.408Z,99029.53
2023-03-12T06:01:30.011Z,99034.94
2023-03-12T06:03:59.558Z,99022.47
2023-03-12T06:06:27.749Z,99027.47
2023-03-12T06:08:55.378Z,99027.47
2023-03-12T06:11:23.111Z,99022.47
2023-03-12T06:13:50.732Z,99029.44
2023-03-12T06:16:21.114Z,99034.47
2023-03-12T06:18:53.576Z,99034.78
2023-03-12T06:21:23.358Z,99032.88
2023-03-12T06:23:51.740Z,99033.09
2023-03-12T06:26:23.902Z,99041.00
2023-03-12T06:28:52.505Z,99033.75
2023-03-12T06:31:21.349Z,99034.78
2023-03-12T06:33:50.653Z,99032.06
2023-03-12T06:36:18.998Z,99025.19
2023-03-12T06:38:46.619Z,99032.25
2023-03-12T06:41:16.781Z,99027.88
2023-03-12T06:43:45.315Z,99030.84
2023-03-12T06:46:16.002Z,99026.47
2023-03-12T06:48:44.280Z,99029.19
2023-03-12T06:51:14.879Z,99022.75
2023-03-12T06:53:42.797Z,99028.34
2023-03-12T06:56:10.487Z,99023.38
2023-03-12T06:58:38.362Z,99025.47
2023-03-12T07:01:06.426Z,99030.66
2023-03-12T07:03:34.464Z,99031.69
2023-03-12T07:06:02.358Z,99029.81
2023-03-12T07:08:32.110Z,99026.09
2023-03-12T07:11:01.498Z,99034.84
2023-03-12T07:13:29.923Z,99034.66
2023-03-12T07:15:57.623Z,99022.34
2023-03-12T07:18:25.576Z,99031.09
2023-03-12T07:20:53.970Z,99022.19
2023-03-12T07:23:22.261Z,99013.03
2023-03-12T07:25:52.093Z,99013.03
2023-03-12T07:28:21.001Z,99019.25
2023-03-12T07:30:48.590Z,99008.66
2023-03-12T07:33:16.991Z,99013.03
2023-03-12T07:35:45.841Z,99010.91
2023-03-12T07:38:13.775Z,99009.50
2023-03-12T07:40:41.475Z,99009.31
2023-03-12T07:43:10.837Z,99009.94
2023-03-12T07:45:40.647Z,99008.28
2023-03-12T07:48:08.739Z,98999.97
2023-03-12T07:50:38.495Z,99003.91
2023-03-12T07:53:05.781Z,99014.72
2023-03-12T07:55:34.445Z,99005.56
2023-03-12T07:58:02.203Z,99014.53
2023-03-12T08:00:31.789Z,99005.56
2023-03-12T08:02:59.603Z,99001.84
2023-03-12T08:05:27.300Z,98994.75
2023-03-12T08:07:54.999Z,98998.94
2023-03-12T08:10:23.336Z,98993.56
2023-03-12T08:12:51.004Z,98991.88
2023-03-12T08:15:18.771Z,98990.84
2023-03-12T08:17:47.795Z,98990.63
2023-03-12T08:20:15.479Z,98977.34
2023-03-12T08:22:42.992Z,98985.44
2023-03-12T08:25:11.441Z,98974.63
2023-03-12T08:27:39.092Z,98970.03
2023-03-12T08:30:08.020Z,98978.16
2023-03-12T08:32:36.266Z,98969.41
2023-03-12T08:35:05.978Z,98970.25
2023-03-12T08:37:33.185Z,98971.94
2023-03-12T08:40:01.253Z,98965.69
2023-03-12T08:42:28.902Z,98965.69
2023-03-12T08:44:56.481Z,98966.53
2023-03-12T08:47:24.083Z,98969.88
2023-03-12T08:49:51.645Z,98972.56
2023-03-12T08:52:20.724Z,98959.44
2023-03-12T08:54:48.345Z,98959.25
2023-03-12T08:57:15.992Z,98955.72
2023-03-12T08:59:43.728Z,98953.00
2023-03-12T09:02:12.247Z,98956.53
2023-03-12T09:04:39.994Z,98953.66
2023-03-12T09:07:07.665Z,98953.66
2023-03-12T09:09:36.864Z,98950.09
2023-03-12T09:12:04.975Z,98948.06
2023-03-12T09:17:20.193Z,98944.50
2023-03-12T09:19:48.052Z,98948.88
2023-03-12T09:22:15.651Z,98945.34
2023-03-12T09:24:44.784Z,98947.22
2023-03-12T09:27:12.395Z,98937.44
2023-03-12T09:29:57.019Z,98940.13
2023-03-12T09:32:27.597Z,98938.47
2023-03-12T09:34:55.390Z,98932.88
2023-03-12T09:37:24.330Z,98937.03
2023-03-12T09:39:54.460Z,98932.66
2023-03-12T09:42:25.502Z,98934.56
2023-03-12T09:44:57.501Z,98935.38
2023-03-12T09:47:29.469Z,98934.34
2023-03-12T09:50:03.607Z,98935.00
2023-03-12T09:52:34.857Z,98929.59
2023-03-12T09:55:12.107Z,98931.25
2023-03-12T09:57:39.816Z,98929.59
2023-03-12T10:00:11.848Z,98923.16
2023-03-12T10:03:09.646Z,98928.56
2023-03-12T10:05:40.464Z,98922.31
2023-03-12T10:08:25.204Z,98932.09
2023-03-12T10:11:08.750Z,98931.91
2023-03-12T10:13:51.610Z,98933.56
2023-03-12T10:16:40.790Z,98927.31
2023-03-12T10:19:21.273Z,98922.94
2023-03-12T10:21:56.520Z,98926.50
2023-03-12T10:24:35.477Z,98927.13
2023-03-12T10:27:12.466Z,98927.97
2023-03-12T10:29:44.563Z,98925.06
2023-03-12T10:32:17.071Z,98922.34
2023-03-12T10:34:47.234Z,98917.81
2023-03-12T10:37:20.515Z,98921.53
2023-03-12T10:39:48.888Z,98923.38
2023-03-12T10:42:20.353Z,98921.97
2023-03-12T10:44:52.457Z,98914.91
2023-03-12T10:47:30.672Z,98914.06
2023-03-12T10:50:13.168Z,98912.59
2023-03-12T10:52:41.199Z,98908.22
2023-03-12T10:55:13.245Z,98917.09
2023-03-12T10:57:42.879Z,98916.41
2023-03-12T11:00:10.705Z,98922.25
2023-03-12T11:02:41.761Z,98911.03
2023-03-12T11:05:22.858Z,98901.66
2023-03-12T11:07:51.375Z,98897.09
2023-03-12T11:10:22.781Z,98889.81
2023-03-12T11:13:01.479Z,98897.09
2023-03-12T11:15:37.370Z,98898.34
2023-03-12T11:18:31.881Z,98889.38
2023-03-12T11:21:14.815Z,98887.91
2023-03-12T11:23:44.279Z,98888.03
2023-03-12T11:26:17.554Z,98894.84
2023-03-12T11:28:49.221Z,98887.50
2023-03-12T11:31:24.515Z,98887.25
2023-03-12T11:33:54.328Z,98892.88
2023-03-12T11:36:46.241Z,98882.75
2023-03-12T11:39:26.385Z,98890.72
2023-03-12T11:42:11.219Z,98884.28
2023-03-12T11:44:45.519Z,98883.28
2023-03-12T11:47:24.146Z,98887.38
2023-03-12T11:50:15.300Z,98879.47
2023-03-12T11:53:00.979Z,98879.28
2023-03-12T11:55:42.888Z,98886.16
2023-03-12T11:58:26.363Z,98870.78
2023-03-12T12:01:01.927Z,98870.78
2023-03-12T12:03:49.657Z,98870.41
2023-03-12T12:06:23.503Z,98869.13
2023-03-12T12:09:03.059Z,98870.38
2023-03-12T12:11:41.679Z,98872.84
2023-03-12T12:14:19.295Z,98873.47
2023-03-12T12:17:04.638Z,98862.31
2023-03-12T12:19:49.084Z,98864.16
2023-03-12T12:22:30.882Z,98857.94
2023-03-12T12:25:17.304Z,98863.72
2023-03-12T12:27:54.479Z,98862.03
2023-03-12T12:30:28.224Z,98863.06
2023-03-12T12:33:13.687Z,98860.38
2023-03-12T12:35:42.928Z,98865.88
2023-03-12T12:38:15.033Z,98864.84
2023-03-12T12:40:48.203Z,98861.56
2023-03-12T12:43:26.392Z,98868.66
2023-03-12T12:45:57.588Z,98870.06
2023-03-12T12:48:32.391Z,98873.16
2023-03-12T12:51:01.818Z,98870.13
2023-03-12T12:53:33.095Z,98866.16
2023-03-12T12:56:10.065Z,98871.41
2023-03-12T12:58:56.815Z,98869.09
2023-03-12T13:01:27.277Z,98874.31
2023-03-12T13:04:02.606Z,98872.66
2023-03-12T13:07:01.319Z,98858.16
2023-03-12T13:09:40.575Z,98855.06
2023-03-12T13:12:21.640Z,98852.00
2023-03-12T13:14:49.996Z,98852.00
2023-03-12T13:17:27.299Z,98854.81
2023-03-12T13:20:02.068Z,98860.84
2023-03-12T13:22:51.731Z,98851.59
2023-03-12T13:25:29.304Z,98860.59
2023-03-12T13:28:01.703Z,98859.69
2023-03-12T13:30:50.775Z,98855.84
2023-03-12T13:33:19.509Z,98860.75
2023-03-12T13:36:10.685Z,98858.31
2023-03-12T13:38:52.085Z,98856.22
2023-03-12T13:41:31.916Z,98851.50
2023-03-12T13:43:59.616Z,98858.34
2023-03-12T13:46:39.656Z,98853.53
2023-03-12T13:49:14.139Z,98852.25
2023-03-12T13:51:55.410Z,98846.69
2023-03-12T13:54:28.688Z,98851.41
2023-03-12T13:56:59.683Z,98842.72
2023-03-12T13:59:29.474Z,98847.25
2023-03-12T14:01:59.181Z,98838.19
2023-03-12T14:04:29.993Z,98837.53
2023-03-12T14:07:18.135Z,98837.34
2023-03-12T14:09:56.152Z,98833.22
2023-03-12T14:12:32.401Z,98839.47
2023-03-12T14:15:24.234Z,98839.88
2023-03-12T14:17:57.581Z,98844.03
2023-03-12T14:20:25.746Z,98851.63
2023-03-12T14:22:58.159Z,98840.44
2023-03-12T14:25:34.269Z,98844.63
2023-03-12T14:28:03.465Z,98847.31
2023-03-12T14:30:41.331Z,98846.09
2023-03-12T14:33:13.334Z,98850.84
2023-03-12T14:35:45.036Z,98848.53
2023-03-12T14:38:21.945Z,98848.94
2023-03-12T14:40:56.938Z,98857.66
2023-03-12T14:43:26.917Z,98857.53
2023-03-12T14:45:59.687Z,98854.03
2023-03-12T14:48:29.802Z,98847.63
2023-03-12T14:50:58.090Z,98854.50
2023-03-12T14:53:29.015Z,98862.44
2023-03-12T14:56:06.354Z,98855.16
2023-03-12T14:58:35.454Z,98854.97
2023-03-12T15:01:05.362Z,98838.75
2023-03-12T15:03:41.226Z,98851.22
2023-03-12T15:06:18.125Z,98841.47
2023-03-12T15:08:47.249Z,98844.63
2023-03-12T15:11:22.218Z,98848.16
2023-03-12T15:13:50.489Z,98856.28
2023-03-12T15:16:19.300Z,98838.19
2023-03-12T15:18:47.353Z,98845.06
2023-03-12T15:21:15.175Z,98838.81
2023-03-12T15:23:47.085Z,98845.88
2023-03-12T15:26:26.929Z,98838.00
2023-03-12T15:28:59.754Z,98828.84
2023-03-12T15:31:28.129Z,98830.69
2023-03-12T15:34:03.787Z,98828.22
2023-03-12T15:36:33.768Z,98831.56
2023-03-12T15:39:13.058Z,98820.75
2023-03-12T15:41:46.230Z,98826.16
2023-03-12T15:44:19.859Z,98817.84
2023-03-12T15:46:48.717Z,98820.56
2023-03-12T15:49:23.448Z,98820.56
2023-03-12T15:52:06.962Z,98829.66
2023-03-12T15:54:36.327Z,98820.56
2023-03-12T15:57:21.603Z,98819.72
2023-03-12T16:00:08.945Z,98816.38
2023-03-12T16:02:37.858Z,98818.22
2023-03-12T16:05:08.024Z,98822.59
2023-03-12T16:07:35.718Z,98807.81
2023-03-12T16:10:07.316Z,98810.94
2023-03-12T16:12:35.064Z,98805.72
2023-03-12T16:15:02.818Z,98803.63
2023-03-12T16:17:30.633Z,98797.19
2023-03-12T16:19:58.368Z,98799.72
2023-03-12T16:22:26.017Z,98800.53
2023-03-12T16:24:53.712Z,98802.59
2023-03-12T16:27:32.016Z,98792.44
2023-03-12T16:30:00.264Z,98798.88
2023-03-12T16:32:30.864Z,98788.91
2023-03-12T16:34:58.854Z,98793.47
2023-03-12T16:37:26.865Z,98783.50
2023-03-12T16:39:54.431Z,98784.53
2023-03-12T16:42:23.466Z,98789.09
2023-03-12T16:44:51.029Z,98790.75
2023-03-12T16:47:18.577Z,98784.72
2023-03-12T16:49:46.088Z,98786.84
2023-03-12T16:52:17.397Z,98782.28
2023-03-12T16:54:44.993Z,98789.53
2023-03-12T16:57:20.285Z,98792.25
2023-03-12T16:59:50.020Z,98789.72
2023-03-12T17:02:18.934Z,98793.28
2023-03-12T17:04:46.585Z,98786.84
2023-03-12T17:07:14.260Z,98783.50
2023-03-12T17:09:41.893Z,98782.03
2023-03-12T17:12:18.349Z,98783.91
2023-03-12T17:14:46.112Z,98789.09
2023-03-12T17:17:15.132Z,98776.63
2023-03-12T17:19:42.618Z,98778.28
2023-03-12T17:22:10.829Z,98777.66
2023-03-12T17:24:38.867Z,98778.28
2023-03-12T17:27:06.942Z,98777.25
2023-03-12T17:29:35.387Z,98783.06
2023-03-12T17:32:03.510Z,98778.09
2023-03-12T17:34:32.700Z,98781.00
2023-03-12T17:37:00.953Z,98775.81
2023-03-12T17:39:28.498Z,98787.03
2023-03-12T17:41:56.248Z,98781.00
2023-03-12T17:44:24.504Z,98775.59
2023-03-12T17:46:59.049Z,98765.19
2023-03-12T17:49:27.305Z,98771.22
2023-03-12T17:51:56.649Z,98762.09
2023-03-12T17:54:24.316Z,98756.91
2023-03-12T17:56:51.913Z,98749.59
2023-03-12T17:59:19.657Z,98744.41
2023-03-12T18:01:47.255Z,98734.81
2023-03-12T18:04:14.868Z,98746.09
2023-03-12T18:06:42.345Z,98741.50
2023-03-12T18:09:11.855Z,98741.88
2023-03-12T18:11:39.462Z,98736.09
2023-03-12T18:14:07.090Z,98743.16
2023-03-12T18:16:34.721Z,98738.16
2023-03-12T18:19:02.327Z,98740.47
2023-03-12T18:21:29.966Z,98741.94
2023-03-12T18:24:02.005Z,98744.03
2023-03-12T18:26:37.272Z,98732.81
2023-03-12T18:29:04.808Z,98724.06
2023-03-12T18:31:32.437Z,98728.63
2023-03-12T18:34:00.134Z,98725.34
2023-03-12T18:36:27.692Z,98738.22
2023-03-12T18:38:55.221Z,98723.47
2023-03-12T18:41:23.167Z,98713.72
2023-03-12T18:43:54.450Z,98703.94
2023-03-12T18:46:23.517Z,98703.09
2023-03-12T18:48:52.013Z,98696.66
2023-03-12T18:51:19.814Z,98681.47
2023-03-12T18:53:47.490Z,98682.50
2023-03-12T18:56:15.548Z,98670.66
2023-03-12T18:58:43.238Z,98671.69
2023-03-12T19:01:12.462Z,98663.59
2023-03-12T19:03:40.081Z,98671.50
2023-03-12T19:06:09.530Z,98675.03
2023-03-12T19:08:37.411Z,98665.06
2023-03-12T19:11:06.045Z,98676.25
2023-03-12T19:13:33.632Z,98677.97
2023-03-12T19:16:02.647Z,98679.63
2023-03-12T19:18:31.848Z,98687.06
2023-03-12T19:20:59.413Z,98699.16
2023-03-12T19:23:27.207Z,98697.50
2023-03-12T19:25:54.918Z,98683.34
2023-03-12T19:28:22.996Z,98697.50
2023-03-12T19:30:50.578Z,98683.34
2023-03-12T19:33:18.226Z,98685.03
2023-03-12T19:35:47.347Z,98686.47
2023-03-12T19:38:14.951Z,98678.97
2023-03-12T19:40:49.140Z,98684.19
2023-03-12T19:43:16.718Z,98676.06
2023-03-12T19:45:45.649Z,98675.03
2023-03-12T19:48:14.032Z,98674.41
2023-03-12T19:50:42.037Z,98669.19
2023-03-12T19:53:11.964Z,98669.63
2023-03-12T19:55:39.772Z,98663.41
2023-03-12T19:58:07.335Z,98650.94
2023-03-12T20:00:35.177Z,98655.50
2023-03-12T20:03:03.018Z,98651.31
2023-03-12T20:05:31.405Z,98643.63
2023-03-12T20:07:58.954Z,98652.16
2023-03-12T20:10:27.988Z,98638.84
2023-03-12T20:12:55.810Z,98634.72
2023-03-12T20:15:23.858Z,98644.69
2023-03-12T20:17:51.550Z,98649.25
2023-03-12T20:20:19.160Z,98650.94
2023-03-12T20:22:46.817Z,98648.44
2023-03-12T20:25:14.954Z,98648.00
2023-03-12T20:27:44.371Z,98639.47
2023-03-12T20:30:13.350Z,98633.03
2023-03-12T20:32:41.262Z,98638.84
2023-03-12T20:35:09.829Z,98631.38
2023-03-12T20:37:37.408Z,98630.34
2023-03-12T20:40:05.902Z,98632.22
2023-03-12T20:42:33.950Z,98632.41
2023-03-12T20:45:03.183Z,98635.09
2023-03-12T20:47:30.784Z,98629.72
2023-03-12T20:49:58.271Z,98644.06
2023-03-12T20:52:26.160Z,98637.81
2023-03-12T20:54:53.677Z,98635.34
2023-03-12T20:57:21.181Z,98638.84
2023-03-12T20:59:48.689Z,98645.28
2023-03-12T21:02:19.160Z,98647.56
2023-03-12T21:04:47.012Z,98645.91
2023-03-12T21:07:14.533Z,98646.13
2023-03-12T21:09:42.442Z,98644.06
2023-03-12T21:12:10.354Z,98644.63
2023-03-12T21:14:37.850Z,98639.88
2023-03-12T21:17:05.534Z,98630.94
2023-03-12T21:19:34.797Z,98632.81
2023-03-12T21:22:02.360Z,98623.69
2023-03-12T21:24:32.726Z,98623.69
2023-03-12T21:27:00.349Z,98625.34
2023-03-12T21:29:28.724Z,98625.34
2023-03-12T21:31:56.490Z,98613.50
2023-03-12T21:34:24.275Z,98617.63
2023-03-12T21:36:53.398Z,98619.75
2023-03-12T21:39:20.969Z,98611.38
2023-03-12T21:41:48.558Z,98614.06
2023-03-12T21:44:16.716Z,98607.47
2023-03-12T21:46:44.469Z,98597.50
2023-03-12T21:49:12.136Z,98597.50
2023-03-12T21:51:39.785Z,98598.72
2023-03-12T21:54:09.232Z,98594.34
2023-03-12T21:56:37.100Z,98595.63
2023-03-12T21:59:05.040Z,98590.59
2023-03-12T22:01:32.645Z,98596.81
2023-03-12T22:04:00.241Z,98603.91
2023-03-12T22:06:27.781Z,98593.56
2023-03-12T22:08:55.344Z,98592.09
2023-03-12T22:11:24.423Z,98585.19
2023-03-12T22:13:52.259Z,98586.91
2023-03-12T22:16:20.204Z,98581.50
2023-03-12T22:18:47.746Z,98578.59
2023-03-12T22:21:18.267Z,98568.81
2023-03-12T22:23:46.367Z,98571.31
2023-03-12T22:26:14.430Z,98571.31
2023-03-12T22:28:47.801Z,98567.78
2023-03-12T22:31:15.394Z,98570.69
2023-03-12T22:33:43.338Z,98565.84
2023-03-12T22:36:15.629Z,98566.94
2023-03-12T22:38:44.665Z,98565.28
2023-03-12T22:41:16.775Z,98572.97
2023-03-12T22:43:46.501Z,98567.34
2023-03-12T22:46:14.061Z,98566.09
2023-03-12T22:48:41.696Z,98556.16
2023-03-12T22:51:09.880Z,98547.78
2023-03-12T22:53:38.046Z,98547.19
2023-03-12T22:56:07.465Z,98539.28
2023-03-12T22:58:35.445Z,98544.25
2023-03-12T23:01:06.741Z,98543.84
2023-03-12T23:03:35.307Z,98543.03
2023-03-12T23:06:03.700Z,98537.41
2023-03-12T23:08:31.301Z,98530.31
2023-03-12T23:11:00.997Z,98534.69
2023-03-12T23:13:30.228Z,98538.28
2023-03-12T23:16:01.143Z,98523.25
2023-03-12T23:18:30.196Z,98530.31
2023-03-12T23:21:01.313Z,98521.41
2023-03-12T23:23:28.853Z,98523.72
2023-03-12T23:25:56.833Z,98521.41
2023-03-12T23:28:23.995Z,98520.19
2023-03-12T23:30:55.345Z,98513.31
2023-03-12T23:33:22.618Z,98512.91
2023-03-12T23:35:58.807Z,98512.06
2023-03-12T23:38:27.013Z,98511.69
2023-03-12T23:40:54.164Z,98502.13
2023-03-12T23:43:21.376Z,98507.69
2023-03-12T23:45:55.396Z,98503.16
2023-03-12T23:48:22.510Z,98502.50
2023-03-12T23:50:49.638Z,98510.59
2023-03-12T23:53:18.200Z,98506.25
2023-03-12T23:55:53.919Z,98503.53
2023-03-12T23:58:22.133Z,98504.56
